Time;durP1;ratioP1;P1;durP2;ratioP2;P2;SDS_P1;SDS_P2;PMS_P1;PMS_P2;Temp;Humidity;BMP_temperature;BMP_pressure;BME280_temperature;BME280_humidity;BME280_pressure;Samples;Min_cycle;Max_cycle;Signal;HPM_P1;HPM_P2
2023/03/24 00:02:07;;;;;;;6.10;3.40;;;;;;;15.81;54.27;99527.75;6210294;22;101716;-78
2023/03/24 00:04:33;;;;;;;4.47;3.28;;;;;;;15.79;54.69;99533.16;6235932;22;100725;-78
2023/03/24 00:07:03;;;;;;;4.85;3.05;;;;;;;15.78;54.61;99509.44;6237207;22;97093;-78
2023/03/24 00:09:29;;;;;;;4.80;3.10;;;;;;;15.57;54.95;99515.22;6185654;22;97268;-78
2023/03/24 00:11:55;;;;;;;4.05;3.10;;;;;;;15.60;55.14;99525.59;6208528;22;97423;-78
2023/03/24 00:14:22;;;;;;;5.60;2.92;;;;;;;15.60;55.33;99525.59;6185722;22;101339;-78
2023/03/24 00:16:48;;;;;;;7.20;3.10;;;;;;;15.47;55.39;99524.69;6237289;22;97200;-78
2023/03/24 00:19:15;;;;;;;6.72;3.70;;;;;;;15.46;55.43;99527.47;6212551;22;97363;-78
2023/03/24 00:21:42;;;;;;;5.57;3.15;;;;;;;15.35;55.56;99504.38;6211149;22;101663;-78
2023/03/24 00:24:08;;;;;;;5.82;3.38;;;;;;;15.41;55.63;99522.47;6186469;22;101985;-78
2023/03/24 00:26:38;;;;;;;4.90;2.72;;;;;;;15.44;55.64;99516.97;6209244;22;97204;-79
2023/03/24 00:29:07;;;;;;;4.25;2.70;;;;;;;15.43;55.67;99517.94;6211745;22;97292;-79
2023/03/24 00:31:32;;;;;;;3.63;2.50;;;;;;;15.43;55.73;99506.50;6184470;22;101241;-81
2023/03/24 00:33:58;;;;;;;4.63;2.90;;;;;;;15.23;55.75;99481.41;6237273;22;98069;-78
2023/03/24 00:36:25;;;;;;;4.13;2.60;;;;;;;15.43;55.68;99510.00;6211078;22;97242;-79
2023/03/24 00:38:52;;;;;;;4.65;2.78;;;;;;;15.40;55.69;99500.47;6211945;22;97435;-78
2023/03/24 00:41:18;;;;;;;4.15;2.88;;;;;;;15.44;55.84;99502.91;6210480;22;101056;-79
2023/03/24 00:43:46;;;;;;;5.70;3.50;;;;;;;15.29;55.95;99484.47;6208570;22;98586;-78
2023/03/24 00:46:26;;;;;;;5.47;3.53;;;;;;;15.32;56.07;99491.34;6211196;22;97180;-78
2023/03/24 00:48:56;;;;;;;5.72;2.72;;;;;;;15.33;56.08;99487.75;6212115;22;96806;-79
2023/03/24 00:51:23;;;;;;;3.95;2.67;;;;;;;15.24;56.31;99485.72;6208924;22;101251;-78
2023/03/24 00:53:48;;;;;;;4.80;2.72;;;;;;;15.30;56.15;99480.91;6237344;22;97904;-77
2023/03/24 00:56:14;;;;;;;4.53;2.90;;;;;;;15.46;55.89;99482.50;6211805;22;96697;-79
2023/03/24 00:58:41;;;;;;;5.03;3.20;;;;;;;15.39;56.32;99472.34;6187161;22;97111;-78
2023/03/24 01:01:06;;;;;;;6.80;3.08;;;;;;;15.25;56.26;99445.97;6209891;22;101602;-78
2023/03/24 01:03:33;;;;;;;4.97;3.30;;;;;;;15.46;56.34;99462.19;6233845;22;97873;-78
2023/03/24 01:06:01;;;;;;;7.20;3.60;;;;;;;15.54;55.71;99456.41;6186121;22;97084;-78
2023/03/24 01:08:27;;;;;;;7.38;4.43;;;;;;;15.49;56.00;99440.81;6238864;22;97103;-78
2023/03/24 01:10:53;;;;;;;6.75;4.03;;;;;;;15.53;55.92;99444.09;6185635;22;101178;-77
2023/03/24 01:13:24;;;;;;;6.53;4.03;;;;;;;15.65;55.85;99445.94;6210079;22;100676;-78
2023/03/24 01:15:50;;;;;;;;;;;;;;;15.67;55.49;99449.28;6212101;22;97273;-77
2023/03/24 01:18:17;;;;;;;6.20;3.92;;;;;;;15.53;56.04;99447.63;6185660;22;97230;-78
2023/03/24 01:20:44;;;;;;;6.82;4.80;;;;;;;15.52;56.14;99443.25;6208401;22;101703;-78
2023/03/24 01:23:16;;;;;;;7.63;4.10;;;;;;;15.31;56.48;99440.28;6184186;22;100728;-78
2023/03/24 01:25:44;;;;;;;7.40;4.18;;;;;;;15.19;56.86;99445.56;6212514;22;97151;-77
2023/03/24 01:28:11;;;;;;;8.13;3.90;;;;;;;15.16;57.01;99444.81;6212212;22;97113;-78
2023/03/24 01:30:37;;;;;;;6.13;3.25;;;;;;;15.21;56.72;99441.00;6210544;22;101158;-78
2023/03/24 01:33:03;;;;;;;5.03;3.13;;;;;;;15.23;56.70;99434.66;6211047;22;101153;-78
2023/03/24 01:35:29;;;;;;;5.22;3.25;;;;;;;15.34;56.50;99437.44;6209675;22;97228;-78
2023/03/24 01:37:55;;;;;;;6.47;3.90;;;;;;;15.31;56.65;99435.00;6184532;22;97470;-78
2023/03/24 01:40:25;;;;;;;7.28;4.10;;;;;;;15.23;56.87;99429.38;6210077;22;100998;-78
2023/03/24 01:42:51;;;;;;;4.65;2.80;;;;;;;15.31;56.62;99429.69;6209749;22;101517;-78
2023/03/24 01:45:41;;;;;;;4.57;2.92;;;;;;;15.25;56.79;99432.75;6185943;22;96759;-78
2023/03/24 01:48:23;;;;;;;4.72;3.00;;;;;;;15.17;57.49;99435.91;6210734;22;96805;-78
2023/03/24 01:50:56;;;;;;;6.75;3.65;;;;;;;15.12;57.47;99427.44;6236370;22;98425;-78
2023/03/24 01:53:22;;;;;;;4.97;2.95;;;;;;;15.14;57.55;99430.84;6207206;22;101683;-78
2023/03/24 01:55:48;;;;;;;4.60;3.10;;;;;;;14.93;57.66;99406.69;6211307;22;97299;-80
2023/03/24 01:58:17;;;;;;;5.82;3.20;;;;;;;14.98;57.78;99424.03;6210024;22;97231;-79
2023/03/24 02:00:52;;;;;;;5.43;2.90;;;;;;;15.01;57.78;99411.47;6187939;22;99296;-79
2023/03/24 02:03:39;;;;;;;5.70;3.00;;;;;;;15.19;57.74;99408.56;6235565;22;99638;-78
2023/03/24 02:06:07;;;;;;;4.13;3.05;;;;;;;15.24;57.45;99404.66;6210827;22;97385;-78
2023/03/24 02:09:06;;;;;;;4.47;3.00;;;;;;;15.28;57.17;99386.78;6210545;22;97070;-78
2023/03/24 02:11:33;;;;;;;5.38;3.47;;;;;;;15.45;57.00;99394.41;6127469;22;101229;-78
2023/03/24 02:14:04;;;;;;;4.03;2.77;;;;;;;15.27;56.92;99380.66;6186420;22;101714;-78
2023/03/24 02:16:57;;;;;;;3.25;2.75;;;;;;;15.27;57.19;99396.50;6208088;22;97402;-78
2023/03/24 02:19:38;;;;;;;4.03;2.78;;;;;;;15.25;57.34;99395.75;6210833;22;96912;-78
2023/03/24 02:22:25;;;;;;;;;;;;;;;15.07;57.58;99411.06;6236110;22;101680;-78
2023/03/24 02:25:15;;;;;;;4.22;2.50;;;;;;;14.92;57.90;99393.56;6209721;22;101564;-78
2023/03/24 02:27:47;;;;;;;5.20;3.38;;;;;;;15.11;57.75;99399.31;6211338;22;96765;-78
2023/03/24 02:30:50;;;;;;;6.43;3.30;;;;;;;15.12;57.54;99395.72;6238599;22;97232;-78
2023/03/24 02:33:49;;;;;;;4.63;3.13;;;;;;;15.02;57.66;99388.53;6210164;22;100071;-78
2023/03/24 02:36:47;;;;;;;6.72;3.10;;;;;;;15.08;57.55;99385.47;6161767;22;101531;-78
2023/03/24 02:39:31;;;;;;;6.72;2.55;;;;;;;15.00;58.06;99382.50;6212931;22;96883;-78
2023/03/24 02:42:15;;;;;;;3.83;2.55;;;;;;;14.98;57.79;99387.03;6237302;22;97273;-78
2023/03/24 02:45:04;;;;;;;4.40;2.90;;;;;;;14.98;57.85;99382.63;6237768;22;98464;-78
2023/03/24 02:47:55;;;;;;;6.68;3.45;;;;;;;15.04;57.81;99379.56;6206962;22;100545;-78
2023/03/24 02:50:30;;;;;;;8.80;2.97;;;;;;;15.08;57.59;99380.19;6236640;22;97219;-78
2023/03/24 02:53:16;;;;;;;7.22;3.33;;;;;;;15.05;58.00;99378.59;6210965;22;97397;-78
2023/03/24 02:56:29;;;;;;;3.67;2.33;;;;;;;14.99;58.02;99381.66;6237669;22;99505;-78
2023/03/24 02:59:05;;;;;;;4.75;3.03;;;;;;;14.93;58.65;99374.97;6213282;22;97778;-78
2023/03/24 03:01:39;;;;;;;5.10;2.65;;;;;;;15.02;58.98;99378.81;6186373;22;97531;-78
2023/03/24 03:04:24;;;;;;;5.07;2.90;;;;;;;14.98;58.54;99361.47;6192648;22;97128;-78
2023/03/24 03:06:53;;;;;;;5.65;2.88;;;;;;;15.09;58.84;99373.94;6234774;22;97756;-78
2023/03/24 03:09:20;;;;;;;6.15;2.92;;;;;;;15.03;58.99;99374.34;6210983;22;100992;-78
2023/03/24 03:11:48;;;;;;;6.50;2.42;;;;;;;15.16;58.74;99377.88;6210914;22;97160;-78
2023/03/24 03:14:21;;;;;;;5.22;2.92;;;;;;;15.05;59.00;99361.91;6187265;22;97281;-78
2023/03/24 03:16:52;;;;;;;7.57;2.35;;;;;;;15.06;59.24;99366.22;6185640;22;100852;-78
2023/03/24 03:19:52;;;;;;;3.87;2.53;;;;;;;15.08;59.53;99367.81;6187651;22;101175;-78
2023/03/24 03:22:23;;;;;;;4.35;2.40;;;;;;;15.02;59.40;99338.31;6181100;22;96892;-79
2023/03/24 03:24:51;;;;;;;4.35;2.67;;;;;;;14.98;59.57;99334.19;6212058;22;97109;-78
2023/03/24 03:27:30;;;;;;;4.00;2.50;;;;;;;15.26;59.49;99362.22;6211342;22;98084;-79
2023/03/24 03:29:59;;;;;;;3.75;2.58;;;;;;;15.17;59.92;99363.69;6210920;22;97870;-79
2023/03/24 03:32:33;;;;;;;3.58;2.60;;;;;;;15.01;60.22;99355.09;6210473;22;97225;-79
2023/03/24 03:35:26;;;;;;;2.83;2.35;;;;;;;15.00;60.56;99359.56;6212074;22;97099;-79
2023/03/24 03:38:13;;;;;;;5.35;2.78;;;;;;;14.77;61.66;99365.53;6192578;22;101228;-79
2023/03/24 03:40:50;;;;;;;5.80;3.05;;;;;;;14.73;62.42;99362.25;6233520;22;100162;-79
2023/03/24 03:43:19;;;;;;;4.43;2.88;;;;;;;14.65;62.62;99359.25;6210673;22;96721;-79
2023/03/24 03:45:45;;;;;;;4.05;2.63;;;;;;;14.52;62.52;99356.59;6186187;22;97265;-79
2023/03/24 03:48:13;;;;;;;4.70;2.90;;;;;;;14.68;62.17;99353.78;6211356;22;97857;-79
2023/03/24 03:50:38;;;;;;;3.63;2.78;;;;;;;14.72;62.29;99355.28;6209885;22;99656;-79
2023/03/24 03:53:07;;;;;;;4.10;2.90;;;;;;;14.75;62.07;99344.50;6211382;22;97406;-78
2023/03/24 03:55:34;;;;;;;6.78;3.63;;;;;;;14.84;62.54;99341.25;6234406;22;96810;-79
2023/03/24 03:58:02;;;;;;;6.70;3.80;;;;;;;14.92;62.37;99340.72;6209563;22;99453;-79
2023/03/24 04:00:43;;;;;;;6.70;3.53;;;;;;;14.95;61.98;99340.50;6189713;22;101676;-79
2023/03/24 04:03:30;;;;;;;6.70;3.63;;;;;;;15.00;61.52;99338.41;6236441;22;97320;-79
2023/03/24 04:06:32;;;;;;;8.23;4.05;;;;;;;14.85;61.75;99335.00;6236953;22;96792;-79
2023/03/24 04:09:13;;;;;;;7.10;3.58;;;;;;;14.67;62.07;99318.59;6163874;22;101453;-79
2023/03/24 04:11:49;;;;;;;4.20;3.05;;;;;;;14.60;62.14;99341.09;6236487;22;97808;-79
2023/03/24 04:15:04;;;;;;;3.85;2.92;;;;;;;14.50;62.21;99340.81;6216506;22;96800;-79
2023/03/24 04:18:11;;;;;;;5.28;3.10;;;;;;;14.39;62.36;99331.91;6177517;22;97496;-79
2023/03/24 04:21:19;;;;;;;3.92;2.70;;;;;;;14.28;62.87;99319.38;6213999;22;101274;-81
2023/03/24 04:23:57;;;;;;;3.30;2.45;;;;;;;14.30;62.20;99325.44;6210580;22;100443;-79
2023/03/24 04:26:33;;;;;;;5.45;2.90;;;;;;;14.41;62.30;99325.56;6209924;22;96905;-79
2023/03/24 04:29:24;;;;;;;4.95;3.03;;;;;;;14.50;61.88;99321.47;6209666;22;97158;-78
2023/03/24 04:32:01;;;;;;;4.63;2.92;;;;;;;14.25;62.23;99287.91;6208468;22;101786;-79
2023/03/24 04:34:43;;;;;;;4.22;2.78;;;;;;;14.36;62.21;99327.66;6209753;22;100920;-78
2023/03/24 04:37:31;;;;;;;7.10;2.72;;;;;;;14.21;62.30;99303.13;6214115;22;96822;-80
2023/03/24 04:40:04;;;;;;;6.50;2.95;;;;;;;14.37;62.23;99324.09;6212924;22;98490;-78
2023/03/24 04:42:34;;;;;;;4.57;2.75;;;;;;;14.25;62.26;99322.22;6209442;22;101704;-78
2023/03/24 04:45:01;;;;;;;3.97;2.40;;;;;;;14.28;62.16;99308.81;6236021;22;101303;-78
2023/03/24 04:48:05;;;;;;;3.78;2.65;;;;;;;14.31;62.06;99318.34;6153333;22;97105;-79
2023/03/24 04:50:50;;;;;;;4.75;2.75;;;;;;;14.21;62.46;99316.31;6201321;22;96818;-78
2023/03/24 04:53:18;;;;;;;4.50;2.60;;;;;;;14.19;62.50;99306.78;6211006;22;101943;-81
2023/03/24 04:56:02;;;;;;;4.88;2.80;;;;;;;14.26;62.57;99308.09;6210921;22;97966;-81
2023/03/24 04:58:48;;;;;;;4.38;2.80;;;;;;;14.22;62.72;99301.31;6237427;22;97115;-81
2023/03/24 05:01:15;;;;;;;4.93;2.85;;;;;;;14.24;62.53;99296.78;6210197;22;97317;-81
2023/03/24 05:03:46;;;;;;;4.22;2.97;;;;;;;14.22;62.69;99293.41;6184517;22;101514;-80
2023/03/24 05:06:13;;;;;;;3.72;2.58;;;;;;;14.24;62.94;99305.56;6186148;22;101166;-80
2023/03/24 05:08:39;;;;;;;4.13;2.55;;;;;;;14.25;62.47;99302.00;6210528;22;97007;-80
2023/03/24 05:11:05;;;;;;;5.15;2.88;;;;;;;14.32;62.53;99298.94;6185431;22;97005;-80
2023/03/24 05:13:32;;;;;;;7.03;2.85;;;;;;;14.35;62.25;99304.84;6208759;22;101524;-78
2023/03/24 05:16:00;;;;;;;3.78;2.83;;;;;;;14.36;62.47;99303.06;6236109;22;100648;-77
2023/03/24 05:18:46;;;;;;;4.63;2.28;;;;;;;14.36;61.94;99303.91;6214654;22;97117;-78
2023/03/24 05:21:12;;;;;;;5.07;2.90;;;;;;;14.39;62.52;99308.97;6185266;22;97185;-78
2023/03/24 05:23:37;;;;;;;7.28;2.80;;;;;;;14.40;62.53;99308.06;6183834;22;100812;-78
2023/03/24 05:26:04;;;;;;;7.00;3.22;;;;;;;14.44;61.85;99313.97;6210365;22;101390;-78
2023/03/24 05:28:33;;;;;;;6.00;3.40;;;;;;;14.30;62.79;99306.09;6236827;22;97076;-81
2023/03/24 05:31:00;;;;;;;4.70;3.00;;;;;;;14.38;62.28;99306.47;6210511;22;97340;-80
2023/03/24 05:33:47;;;;;;;6.28;3.65;;;;;;;14.51;61.83;99296.75;6215416;22;101820;-78
2023/03/24 05:36:16;;;;;;;5.25;2.90;;;;;;;14.40;61.86;99276.38;6210478;22;101122;-78
2023/03/24 05:38:45;;;;;;;3.90;3.00;;;;;;;14.49;62.14;99293.41;6185614;22;97395;-81
2023/03/24 05:41:11;;;;;;;5.82;3.25;;;;;;;14.53;61.82;99292.25;6210373;22;97275;-81
2023/03/24 05:43:40;;;;;;;6.07;3.13;;;;;;;14.47;61.91;99290.84;6209747;22;99924;-81
2023/03/24 05:46:11;;;;;;;6.43;2.88;;;;;;;14.55;61.84;99306.22;6211218;22;101484;-80
2023/03/24 05:48:37;;;;;;;4.55;3.10;;;;;;;14.41;62.17;99285.97;6209939;22;97941;-80
2023/03/24 05:51:22;;;;;;;9.32;3.47;;;;;;;14.54;62.33;99304.50;6213863;22;97317;-81
2023/03/24 05:53:59;;;;;;;4.55;2.75;;;;;;;14.51;61.90;99299.41;6211786;22;100920;-80
2023/03/24 05:56:35;;;;;;;4.93;2.70;;;;;;;14.42;62.17;99277.09;6211847;22;102149;-78
2023/03/24 05:59:10;;;;;;;4.20;2.83;;;;;;;14.35;61.76;99261.78;6212360;22;97144;-78
2023/03/24 06:02:03;;;;;;;3.80;2.40;;;;;;;14.50;61.98;99290.63;6188366;22;97743;-78
2023/03/24 06:04:45;;;;;;;6.55;2.95;;;;;;;14.60;62.18;99298.84;6210087;22;101983;-78
2023/03/24 06:07:14;;;;;;;5.55;2.83;;;;;;;14.61;61.69;99275.91;6185267;22;101266;-78
2023/03/24 06:09:45;;;;;;;4.95;2.45;;;;;;;14.79;61.87;99294.97;6210671;22;97189;-77
2023/03/24 06:12:13;;;;;;;3.65;2.20;;;;;;;14.82;61.50;99302.69;6236843;22;97159;-78
2023/03/24 06:14:47;;;;;;;6.78;2.70;;;;;;;14.82;61.69;99302.69;6213168;22;100628;-83
2023/03/24 06:17:13;;;;;;;5.10;2.55;;;;;;;14.69;61.94;99284.19;6186305;22;101158;-83
2023/03/24 06:19:47;;;;;;;3.85;2.67;;;;;;;14.80;61.69;99291.34;6186994;22;97339;-83
2023/03/24 06:22:48;;;;;;;5.00;2.38;;;;;;;14.83;61.80;99299.91;6113990;23;97238;-82
2023/03/24 06:25:20;;;;;;;8.43;3.28;;;;;;;14.77;62.16;99286.28;6187344;22;102207;-85
2023/03/24 06:28:11;;;;;;;4.13;2.42;;;;;;;14.75;62.31;99285.53;6214497;22;101095;-80
2023/03/24 06:30:37;;;;;;;10.60;2.80;;;;;;;14.84;61.99;99288.41;6181633;22;96711;-84
2023/03/24 06:33:04;;;;;;;6.20;2.80;;;;;;;14.90;61.95;99280.06;6183463;22;97536;-83
2023/03/24 06:35:30;;;;;;;6.30;3.10;;;;;;;14.96;61.60;99289.38;6211566;22;97448;-83
2023/03/24 06:38:03;;;;;;;5.57;3.22;;;;;;;14.97;61.77;99285.78;6212085;22;100580;-84
2023/03/24 06:40:30;;;;;;;5.75;2.75;;;;;;;14.89;61.69;99280.16;6204566;22;97233;-83
2023/03/24 06:42:56;;;;;;;3.70;2.70;;;;;;;14.93;61.93;99277.22;6209846;22;96752;-81
2023/03/24 06:45:22;;;;;;;5.53;3.00;;;;;;;14.91;61.79;99280.91;6209893;22;101379;-80
2023/03/24 06:47:57;;;;;;;5.70;2.92;;;;;;;14.98;61.87;99276.03;6209219;22;101529;-80
2023/03/24 06:50:31;;;;;;;4.03;2.90;;;;;;;15.05;61.31;99272.03;6210342;22;96908;-79
2023/03/24 06:52:58;;;;;;;7.80;3.30;;;;;;;15.12;61.50;99284.72;6186443;22;96949;-80
2023/03/24 06:55:25;;;;;;;6.32;2.97;;;;;;;15.05;61.38;99270.25;6211347;22;101709;-80
2023/03/24 06:57:52;;;;;;;8.05;2.88;;;;;;;15.03;61.83;99264.19;6211394;22;100769;-80
2023/03/24 07:00:21;;;;;;;5.03;3.28;;;;;;;15.17;61.80;99279.94;6210112;22;96907;-81
2023/03/24 07:03:01;;;;;;;6.70;3.17;;;;;;;15.21;62.09;99258.59;6191177;22;97138;-81
2023/03/24 07:05:27;;;;;;;7.90;3.15;;;;;;;15.33;62.15;99278.88;6186214;22;101570;-81
2023/03/24 07:07:53;;;;;;;5.70;3.17;;;;;;;15.35;62.11;99276.97;6211419;22;101367;-81
2023/03/24 07:10:34;;;;;;;5.65;3.00;;;;;;;15.25;62.60;99278.59;6213811;22;96764;-80
2023/03/24 07:13:02;;;;;;;8.98;3.20;;;;;;;15.17;63.17;99264.09;6237858;22;97116;-81
2023/03/24 07:15:28;;;;;;;6.97;3.55;;;;;;;15.29;62.94;99283.53;6185751;22;101512;-81
2023/03/24 07:17:54;;;;;;;6.10;3.40;;;;;;;15.23;63.54;99288.41;6186096;22;101656;-80
2023/03/24 07:20:41;;;;;;;7.05;3.03;;;;;;;15.11;63.27;99259.25;6191773;22;97256;-82
2023/03/24 07:23:15;;;;;;;5.13;2.55;;;;;;;15.34;63.39;99281.44;6189714;22;96836;-81
2023/03/24 07:25:44;;;;;;;5.55;2.53;;;;;;;15.38;63.12;99282.06;6236859;22;97911;-81
2023/03/24 07:28:23;;;;;;;4.40;3.00;;;;;;;15.45;62.98;99271.91;6213931;22;101781;-81
2023/03/24 07:30:49;;;;;;;4.43;2.72;;;;;;;15.45;63.27;99274.56;6185326;22;97003;-81
2023/03/24 07:33:18;;;;;;;6.68;2.50;;;;;;;15.38;63.12;99267.03;6211708;22;96865;-81
2023/03/24 07:35:44;;;;;;;4.68;2.80;;;;;;;15.44;62.92;99273.69;6184615;22;101749;-81
2023/03/24 07:38:10;;;;;;;4.95;2.80;;;;;;;15.44;62.97;99263.09;6184830;22;101401;-83
2023/03/24 07:40:36;;;;;;;5.25;2.97;;;;;;;15.51;63.87;99276.75;6210401;22;97226;-81
2023/03/24 07:43:04;;;;;;;3.70;2.97;;;;;;;15.48;64.05;99277.81;6208712;22;97342;-81
2023/03/24 07:46:01;;;;;;;7.05;3.60;;;;;;;15.46;64.95;99279.72;6218441;22;99521;-81
2023/03/24 07:48:27;;;;;;;8.40;3.40;;;;;;;15.31;65.41;99260.50;6210685;22;100827;-82
2023/03/24 07:50:53;;;;;;;7.38;3.40;;;;;;;15.09;66.58;99236.50;6237456;22;96779;-81
2023/03/24 07:53:46;;;;;;;5.95;3.83;;;;;;;15.12;66.94;99260.06;6175775;22;97265;-81
2023/03/24 07:56:15;;;;;;;7.57;3.75;;;;;;;15.05;67.27;99264.94;6187078;22;102229;-82
2023/03/24 07:58:49;;;;;;;8.88;3.45;;;;;;;14.99;67.75;99257.44;6212449;22;101309;-81
2023/03/24 08:01:22;;;;;;;11.48;4.07;;;;;;;14.98;68.18;99232.00;6212665;22;97287;-82
2023/03/24 08:03:53;;;;;;;10.55;4.82;;;;;;;14.79;68.29;99202.50;6212045;22;97093;-81
2023/03/24 08:06:52;;;;;;;7.88;3.65;;;;;;;14.82;69.19;99233.97;6168979;22;97833;-81
2023/03/24 08:09:18;;;;;;;6.68;3.20;;;;;;;14.80;69.19;99231.44;6210684;22;101313;-81
2023/03/24 08:11:43;;;;;;;4.82;3.55;;;;;;;14.88;68.93;99221.19;6209049;22;97105;-82
2023/03/24 08:14:09;;;;;;;7.53;3.65;;;;;;;14.87;68.19;99219.50;6211909;22;96845;-80
2023/03/24 08:16:35;;;;;;;5.78;3.53;;;;;;;14.60;68.31;99197.63;6210048;22;101532;-81
2023/03/24 08:19:00;;;;;;;8.43;4.28;;;;;;;14.77;68.28;99241.38;6211426;22;101565;-80
2023/03/24 08:21:26;;;;;;;7.65;3.38;;;;;;;14.92;67.38;99246.47;6185482;22;97218;-78
2023/03/24 08:23:51;;;;;;;5.32;3.00;;;;;;;14.93;66.89;99232.28;6237367;22;96915;-77
2023/03/24 08:26:17;;;;;;;6.70;3.35;;;;;;;15.03;66.77;99229.84;6236326;22;97327;-80
2023/03/24 08:28:43;;;;;;;5.90;2.67;;;;;;;15.19;65.41;99227.00;6185442;22;101414;-76
2023/03/24 08:31:08;;;;;;;5.95;3.05;;;;;;;15.46;63.81;99212.75;6239222;22;97167;-79
2023/03/24 08:33:34;;;;;;;6.00;3.00;;;;;;;16.10;62.97;99223.97;6236546;22;97008;-77
2023/03/24 08:36:00;;;;;;;7.47;3.10;;;;;;;16.53;61.44;99223.41;6236878;22;101703;-79
2023/03/24 08:38:29;;;;;;;5.38;3.20;;;;;;;17.14;60.53;99209.91;6211028;22;101318;-79
2023/03/24 08:41:00;;;;;;;7.72;3.13;;;;;;;17.90;58.42;99204.75;6237930;22;97245;-79
2023/03/24 08:43:28;;;;;;;3.90;2.80;;;;;;;18.02;56.74;99201.91;6211829;22;97552;-78
2023/03/24 08:45:55;;;;;;;4.40;2.95;;;;;;;18.31;56.13;99203.97;6210514;22;98180;-78
2023/03/24 08:48:21;;;;;;;3.70;2.72;;;;;;;18.02;56.78;99193.09;6185787;22;101045;-79
2023/03/24 08:50:47;;;;;;;4.95;2.60;;;;;;;17.82;56.98;99200.88;6210993;22;97595;-80
2023/03/24 08:53:12;;;;;;;6.13;2.38;;;;;;;17.59;56.62;99191.25;6210315;22;97126;-81
2023/03/24 08:55:42;;;;;;;5.03;2.40;;;;;;;17.33;57.13;99178.28;6183430;22;101452;-80
2023/03/24 08:58:27;;;;;;;3.67;2.30;;;;;;;17.34;57.49;99192.41;6236055;22;97789;-82
2023/03/24 09:00:53;;;;;;;3.47;2.45;;;;;;;17.23;57.83;99174.69;6233336;22;96719;-82
2023/03/24 09:03:21;;;;;;;4.03;2.70;;;;;;;17.14;57.93;99188.69;6208594;22;97495;-82
2023/03/24 09:05:47;;;;;;;5.03;2.85;;;;;;;17.07;57.97;99183.00;6183574;22;101025;-83
2023/03/24 09:08:15;;;;;;;5.85;2.58;;;;;;;16.95;58.28;99179.50;6235080;22;101162;-83
2023/03/24 09:10:41;;;;;;;4.63;2.42;;;;;;;16.85;58.63;99165.31;6183148;22;97333;-83
2023/03/24 09:13:07;;;;;;;3.47;2.75;;;;;;;16.85;59.12;99178.56;6184057;22;96793;-82
2023/03/24 09:15:32;;;;;;;5.18;2.97;;;;;;;16.91;59.46;99183.38;6234887;22;101130;-82
2023/03/24 09:17:58;;;;;;;7.32;2.67;;;;;;;17.04;58.73;99175.28;6235871;22;98346;-82
2023/03/24 09:20:24;;;;;;;5.28;2.40;;;;;;;16.84;59.24;99157.47;6184061;22;96952;-85
2023/03/24 09:22:50;;;;;;;6.75;2.97;;;;;;;16.87;59.43;99163.41;6209480;22;97221;-84
2023/03/24 09:25:18;;;;;;;3.95;3.00;;;;;;;16.93;59.34;99164.72;6205426;22;100404;-85
2023/03/24 09:27:44;;;;;;;5.45;2.70;;;;;;;16.96;59.29;99156.53;6184230;22;99951;-85
2023/03/24 09:30:12;;;;;;;4.38;2.50;;;;;;;16.83;59.67;99137.25;6183875;22;97262;-85
2023/03/24 09:32:38;;;;;;;4.75;2.35;;;;;;;16.92;59.80;99144.47;6209777;22;97690;-85
2023/03/24 09:35:04;;;;;;;4.20;2.47;;;;;;;17.02;59.79;99152.56;6185847;22;101007;-84
2023/03/24 09:37:31;;;;;;;7.35;2.38;;;;;;;17.02;59.59;99131.34;6211582;22;100876;-86
2023/03/24 09:39:58;;;;;;;5.22;2.70;;;;;;;17.15;58.92;99124.09;6211856;22;96693;-84
2023/03/24 09:42:26;;;;;;;6.70;2.25;;;;;;;17.17;58.79;99138.06;6213046;22;97250;-85
2023/03/24 09:44:54;;;;;;;3.20;1.80;;;;;;;17.25;57.74;99134.78;6185809;22;101062;-85
2023/03/24 09:47:42;;;;;;;5.72;2.00;;;;;;;17.28;57.83;99132.75;6212546;22;100822;-84
2023/03/24 09:50:25;;;;;;;4.82;1.98;;;;;;;17.34;57.94;99128.75;6186730;22;97109;-85
2023/03/24 09:52:54;;;;;;;5.80;2.13;;;;;;;17.42;57.57;99139.56;6186115;22;97512;-83
2023/03/24 09:55:23;;;;;;;4.25;2.03;;;;;;;17.47;57.32;99128.59;6186029;22;101541;-85
2023/03/24 09:57:50;;;;;;;4.78;2.03;;;;;;;17.49;56.94;99121.38;6184972;22;101707;-83
2023/03/24 10:00:18;;;;;;;4.38;2.03;;;;;;;17.62;56.41;99119.38;6212425;22;97235;-84
2023/03/24 10:02:45;;;;;;;4.88;1.77;;;;;;;17.64;56.50;99117.44;6211450;22;96761;-83
2023/03/24 10:05:26;;;;;;;3.20;1.58;;;;;;;17.48;55.62;99087.81;6237223;22;98035;-82
2023/03/24 10:08:08;;;;;;;7.82;1.88;;;;;;;17.65;55.72;99104.03;6211779;22;101006;-82
2023/03/24 10:10:42;;;;;;;6.93;1.70;;;;;;;17.88;54.21;99101.31;6237833;22;97029;-82
2023/03/24 10:13:19;;;;;;;5.10;1.80;;;;;;;17.96;54.83;99090.91;6211775;22;96827;-83
2023/03/24 10:15:54;;;;;;;9.20;2.17;;;;;;;18.21;54.21;99078.19;6236861;22;98011;-82
2023/03/24 10:18:30;;;;;;;3.25;1.90;;;;;;;18.51;53.76;99086.22;6186031;22;100951;-82
2023/03/24 10:20:59;;;;;;;5.68;2.08;;;;;;;18.90;52.57;99098.84;6237349;22;97191;-82
2023/03/24 10:23:41;;;;;;;3.30;2.05;;;;;;;19.15;51.55;99078.91;6236608;22;97266;-82
2023/03/24 10:26:22;;;;;;;6.88;1.80;;;;;;;19.52;50.11;99087.09;6211744;22;101226;-85
2023/03/24 10:28:53;;;;;;;6.40;2.80;;;;;;;19.79;49.62;99074.94;6211545;22;98021;-84
2023/03/24 10:31:24;;;;;;;5.10;1.75;;;;;;;19.79;51.12;99064.28;6211821;22;96672;-84
2023/03/24 10:33:51;;;;;;;;;;;;;;;19.98;50.77;99064.25;6240856;22;97999;-84
2023/03/24 10:36:18;;;;;;;3.65;1.92;;;;;;;20.01;49.04;99057.78;6239468;22;97361;-84
2023/03/24 10:38:44;;;;;;;4.93;1.60;;;;;;;20.06;49.82;99053.72;6213301;22;100477;-84
2023/03/24 10:41:21;;;;;;;3.95;1.85;;;;;;;20.20;48.96;99059.59;6212809;22;96666;-83
2023/03/24 10:43:50;;;;;;;2.80;1.55;;;;;;;20.34;47.96;99069.78;6187111;22;97067;-83
2023/03/24 10:46:19;;;;;;;5.60;2.28;;;;;;;20.38;46.10;99073.84;6187140;22;101857;-84
2023/03/24 10:48:48;;;;;;;4.15;2.00;;;;;;;20.37;45.42;99052.69;6212422;22;100670;-84
2023/03/24 10:51:29;;;;;;;5.75;2.10;;;;;;;20.08;46.13;99074.91;6212066;22;97706;-82
2023/03/24 10:54:10;;;;;;;4.38;1.60;;;;;;;19.85;46.42;99061.06;6210499;22;96834;-82
2023/03/24 10:56:38;;;;;;;5.32;1.63;;;;;;;19.61;46.52;99059.63;6237557;22;97978;-82
2023/03/24 10:59:21;;;;;;;7.25;2.03;;;;;;;19.41;46.89;99061.44;6187227;22;101304;-83
2023/03/24 11:01:47;;;;;;;4.10;1.80;;;;;;;19.40;46.94;99069.56;6211274;22;97059;-83
2023/03/24 11:04:15;;;;;;;3.15;1.67;;;;;;;19.23;47.15;99071.94;6210007;22;97272;-85
2023/03/24 11:07:07;;;;;;;2.80;1.58;;;;;;;19.13;47.62;99065.72;6184643;22;101522;-84
2023/03/24 11:09:39;;;;;;;4.85;1.90;;;;;;;19.12;47.60;99065.88;6237717;22;97148;-82
2023/03/24 11:12:19;;;;;;;6.63;1.85;;;;;;;18.99;47.79;99066.13;6210526;22;97068;-83
2023/03/24 11:14:45;;;;;;;5.57;2.17;;;;;;;19.00;47.90;99054.53;6236705;22;96662;-82
2023/03/24 11:17:15;;;;;;;4.50;2.10;;;;;;;18.94;47.93;99055.91;6185471;22;101322;-82
2023/03/24 11:19:52;;;;;;;3.28;2.25;;;;;;;18.88;48.02;99047.63;6236773;22;98598;-80
2023/03/24 11:22:18;;;;;;;4.88;1.85;;;;;;;18.95;47.92;99062.91;6210232;22;97229;-81
2023/03/24 11:24:51;;;;;;;4.45;1.90;;;;;;;18.83;48.29;99055.19;6237790;22;97033;-80
2023/03/24 11:27:18;;;;;;;2.72;1.52;;;;;;;18.77;48.07;99049.41;6236802;22;98061;-80
2023/03/24 11:29:48;;;;;;;3.22;1.80;;;;;;;18.72;48.36;99046.28;6187666;22;101090;-86
2023/03/24 11:32:26;;;;;;;3.55;1.95;;;;;;;18.73;48.67;99049.78;6186477;22;97175;-84
2023/03/24 11:35:05;;;;;;;4.57;2.00;;;;;;;18.69;48.10;99025.28;6212792;22;97107;-84
2023/03/24 11:37:33;;;;;;;3.88;2.20;;;;;;;18.78;48.17;99040.47;6212457;22;101668;-83
2023/03/24 11:40:11;;;;;;;6.35;1.85;;;;;;;18.73;48.62;99044.47;6212410;22;101182;-84
2023/03/24 11:42:49;;;;;;;2.65;1.90;;;;;;;18.70;48.57;99047.38;6239790;22;97311;-84
2023/03/24 11:45:34;;;;;;;4.43;1.80;;;;;;;18.75;48.81;99043.38;6240033;22;96958;-86
2023/03/24 11:48:01;;;;;;;3.28;2.10;;;;;;;18.65;49.27;99026.56;6240370;22;98366;-86
2023/03/24 11:50:33;;;;;;;2.70;1.90;;;;;;;18.59;50.00;99026.22;6214072;22;101074;-85
2023/03/24 11:53:01;;;;;;;4.05;1.73;;;;;;;18.60;50.31;99033.25;6212961;22;97056;-85
2023/03/24 11:55:32;;;;;;;3.30;2.03;;;;;;;18.61;50.59;99025.13;6237146;22;96763;-85
2023/03/24 11:58:02;;;;;;;5.07;2.38;;;;;;;18.60;50.60;99033.25;6237577;22;98463;-84
2023/03/24 12:00:38;;;;;;;7.40;2.20;;;;;;;18.63;50.40;99038.28;6211649;22;97926;-85